Aviation Digital Data Service (ADDS)

Output produced by METARs form (1154 UTC 23 June 2018)
found at http://www.aviationweather.gov/adds/metars/
 
METAR text: KHLG 231102Z AUTO 21007KT 10SM FEW007 BKN019 19/18 A2978 RMK AO2 T01890178
Conditions at: KHLG (WHEELING , WV, US) observed 1102 UTC 23 June 2018
Temperature: 18.9°C (66°F)
Dewpoint: 17.8°C (64°F) [RH = 93%]
Pressure (altimeter): 29.78 inches Hg (1008.5 mb)
Winds: from the SSW (210 degrees) at 8 MPH (7 knots; 3.6 m/s)
Visibility: 10 or more miles (16+ km)
Ceiling: 1900 feet AGL
Clouds: few clouds at 700 feet AGL
broken clouds at 1900 feet AGL
Weather: automated observation with no human augmentation;
there may or may not be significant weather present at this time

METAR text: KHLG 231053Z AUTO 20006KT 10SM SCT007 SCT025 19/18 A2978 RMK AO2 SLP078 T01890178
Conditions at: KHLG (WHEELING , WV, US) observed 1053 UTC 23 June 2018
Temperature: 18.9°C (66°F)
Dewpoint: 17.8°C (64°F) [RH = 93%]
Pressure (altimeter): 29.78 inches Hg (1008.5 mb)
[Sea-level pressure: 1007.8 mb]
Winds: from the SSW (200 degrees) at 7 MPH (6 knots; 3.1 m/s)
Visibility: 10 or more miles (16+ km)
Ceiling: at least 12,000 feet AGL
Clouds: scattered clouds at 700 feet AGL
scattered clouds at 2500 feet AGL
Weather: automated observation with no human augmentation;
there may or may not be significant weather present at this time

METAR text: KHLG 231044Z AUTO 19007KT 10SM SCT007 SCT019 BKN025 19/18 A2977 RMK AO2 T01890178
Conditions at: KHLG (WHEELING , WV, US) observed 1044 UTC 23 June 2018
Temperature: 18.9°C (66°F)
Dewpoint: 17.8°C (64°F) [RH = 93%]
Pressure (altimeter): 29.77 inches Hg (1008.2 mb)
Winds: from the S (190 degrees) at 8 MPH (7 knots; 3.6 m/s)
Visibility: 10 or more miles (16+ km)
Ceiling: 2500 feet AGL
Clouds: scattered clouds at 700 feet AGL
scattered clouds at 1900 feet AGL
broken clouds at 2500 feet AGL
Weather: automated observation with no human augmentation;
there may or may not be significant weather present at this time

METAR text: KHLG 231029Z AUTO 21009KT 10SM BKN009 OVC013 19/18 A2977 RMK AO2 CIG 007V011 T01890178
Conditions at: KHLG (WHEELING , WV, US) observed 1029 UTC 23 June 2018
Temperature: 18.9°C (66°F)
Dewpoint: 17.8°C (64°F) [RH = 93%]
Pressure (altimeter): 29.77 inches Hg (1008.2 mb)
Winds: from the SSW (210 degrees) at 10 MPH (9 knots; 4.7 m/s)
Visibility: 10 or more miles (16+ km)
Ceiling: 900 feet AGL
Clouds: broken clouds at 900 feet AGL
overcast cloud deck at 1300 feet AGL
Weather: automated observation with no human augmentation;
there may or may not be significant weather present at this time

METAR text: KHLG 230953Z AUTO 17008KT 10SM OVC014 19/18 A2975 RMK AO2 SLP070 T01890178
Conditions at: KHLG (WHEELING , WV, US) observed 0953 UTC 23 June 2018
Temperature: 18.9°C (66°F)
Dewpoint: 17.8°C (64°F) [RH = 93%]
Pressure (altimeter): 29.75 inches Hg (1007.5 mb)
[Sea-level pressure: 1007.0 mb]
Winds: from the S (170 degrees) at 9 MPH (8 knots; 4.2 m/s)
Visibility: 10 or more miles (16+ km)
Ceiling: 1400 feet AGL
Clouds: overcast cloud deck at 1400 feet AGL
Weather: automated observation with no human augmentation;
there may or may not be significant weather present at this time

METAR text: KHLG 230926Z AUTO 15007KT 10SM BKN021 BKN033 OVC039 18/17 A2975 RMK AO2 T01830172
Conditions at: KHLG (WHEELING , WV, US) observed 0926 UTC 23 June 2018
Temperature: 18.3°C (65°F)
Dewpoint: 17.2°C (63°F) [RH = 93%]
Pressure (altimeter): 29.75 inches Hg (1007.5 mb)
Winds: from the SSE (150 degrees) at 8 MPH (7 knots; 3.6 m/s)
Visibility: 10 or more miles (16+ km)
Ceiling: 2100 feet AGL
Clouds: broken clouds at 2100 feet AGL
broken clouds at 3300 feet AGL
overcast cloud deck at 3900 feet AGL
Weather: automated observation with no human augmentation;
there may or may not be significant weather present at this time

METAR text: KHLG 230853Z AUTO 14005KT 10SM FEW032 BKN048 OVC080 18/17 A2974 RMK AO2 LTG DSNT NW RAE25 SLP067 P0004 60007 T01780167 58006
Conditions at: KHLG (WHEELING , WV, US) observed 0853 UTC 23 June 2018
Temperature: 17.8°C (64°F)
Dewpoint: 16.7°C (62°F) [RH = 93%]
Pressure (altimeter): 29.74 inches Hg (1007.2 mb)
[Sea-level pressure: 1006.7 mb]
Winds: from the SE (140 degrees) at 6 MPH (5 knots; 2.6 m/s)
Visibility: 10 or more miles (16+ km)
Ceiling: 4800 feet AGL
Clouds: few clouds at 3200 feet AGL
broken clouds at 4800 feet AGL
overcast cloud deck at 8000 feet AGL
Weather: automated observation with no human augmentation;
there may or may not be significant weather present at this time

METAR text: KHLG 230753Z AUTO 13005KT 6SM RA BR FEW036 SCT044 OVC055 18/17 A2975 RMK AO2 RAE12B43 SLP071 P0002 T01780167
Conditions at: KHLG (WHEELING , WV, US) observed 0753 UTC 23 June 2018
Temperature: 17.8°C (64°F)
Dewpoint: 16.7°C (62°F) [RH = 93%]
Pressure (altimeter): 29.75 inches Hg (1007.5 mb)
[Sea-level pressure: 1007.1 mb]
Winds: from the SE (130 degrees) at 6 MPH (5 knots; 2.6 m/s)
Visibility: 6 miles (10 km)
Ceiling: 5500 feet AGL
Clouds: few clouds at 3600 feet AGL
scattered clouds at 4400 feet AGL
overcast cloud deck at 5500 feet AGL
Weather: RA BR  (rain, mist)

METAR text: KHLG 230653Z AUTO 15005KT 7SM -RA FEW075 BKN095 18/17 A2976 RMK AO2 RAB46 SLP072 P0001 T01780167
Conditions at: KHLG (WHEELING , WV, US) observed 0653 UTC 23 June 2018
Temperature: 17.8°C (64°F)
Dewpoint: 16.7°C (62°F) [RH = 93%]
Pressure (altimeter): 29.76 inches Hg (1007.9 mb)
[Sea-level pressure: 1007.2 mb]
Winds: from the SSE (150 degrees) at 6 MPH (5 knots; 2.6 m/s)
Visibility: 7 miles (11 km)
Ceiling: 9500 feet AGL
Clouds: few clouds at 7500 feet AGL
broken clouds at 9500 feet AGL
Weather: -RA  (light rain)

METAR text: KHLG 230553Z AUTO 11006KT 10SM CLR 18/17 A2976 RMK AO2 SLP073 60010 T01780167 10200 20178 56013
Conditions at: KHLG (WHEELING , WV, US) observed 0553 UTC 23 June 2018
Temperature: 17.8°C (64°F)
Dewpoint: 16.7°C (62°F) [RH = 93%]
Pressure (altimeter): 29.76 inches Hg (1007.9 mb)
[Sea-level pressure: 1007.3 mb]
Winds: from the ESE (110 degrees) at 7 MPH (6 knots; 3.1 m/s)
Visibility: 10 or more miles (16+ km)
Ceiling: at least 12,000 feet AGL
Clouds: sky clear below 12,000 feet AGL
Weather: automated observation with no human augmentation;
there may or may not be significant weather present at this time

METAR text: KHLG 230453Z AUTO 10009KT 10SM CLR 18/16 A2977 RMK AO2 SLP075 T01780161 402330178
Conditions at: KHLG (WHEELING , WV, US) observed 0453 UTC 23 June 2018
Temperature: 17.8°C (64°F)
Dewpoint: 16.1°C (61°F) [RH = 90%]
Pressure (altimeter): 29.77 inches Hg (1008.2 mb)
[Sea-level pressure: 1007.5 mb]
Winds: from the E (100 degrees) at 10 MPH (9 knots; 4.7 m/s)
Visibility: 10 or more miles (16+ km)
Ceiling: at least 12,000 feet AGL
Clouds: sky clear below 12,000 feet AGL
Weather: automated observation with no human augmentation;
there may or may not be significant weather present at this time

METAR text: KHLG 230427Z AUTO 10007KT 10SM SCT016 18/16 A2978 RMK AO2 T01780161
Conditions at: KHLG (WHEELING , WV, US) observed 0427 UTC 23 June 2018
Temperature: 17.8°C (64°F)
Dewpoint: 16.1°C (61°F) [RH = 90%]
Pressure (altimeter): 29.78 inches Hg (1008.5 mb)
Winds: from the E (100 degrees) at 8 MPH (7 knots; 3.6 m/s)
Visibility: 10 or more miles (16+ km)
Ceiling: at least 12,000 feet AGL
Clouds: scattered clouds at 1600 feet AGL
Weather: automated observation with no human augmentation;
there may or may not be significant weather present at this time

METAR text: KHLG 230418Z AUTO 11005KT 10SM BKN016 18/16 A2978 RMK AO2 T01780161
Conditions at: KHLG (WHEELING , WV, US) observed 0418 UTC 23 June 2018
Temperature: 17.8°C (64°F)
Dewpoint: 16.1°C (61°F) [RH = 90%]
Pressure (altimeter): 29.78 inches Hg (1008.5 mb)
Winds: from the ESE (110 degrees) at 6 MPH (5 knots; 2.6 m/s)
Visibility: 10 or more miles (16+ km)
Ceiling: 1600 feet AGL
Clouds: broken clouds at 1600 feet AGL
Weather: automated observation with no human augmentation;
there may or may not be significant weather present at this time

METAR text: KHLG 230353Z AUTO 13004KT 10SM FEW120 18/16 A2978 RMK AO2 SLP080 T01780161
Conditions at: KHLG (WHEELING , WV, US) observed 0353 UTC 23 June 2018
Temperature: 17.8°C (64°F)
Dewpoint: 16.1°C (61°F) [RH = 90%]
Pressure (altimeter): 29.78 inches Hg (1008.5 mb)
[Sea-level pressure: 1008.0 mb]
Winds: from the SE (130 degrees) at 5 MPH (4 knots; 2.1 m/s)
Visibility: 10 or more miles (16+ km)
Ceiling: at least 12,000 feet AGL
Clouds: few clouds at 12000 feet AGL
Weather: automated observation with no human augmentation;
there may or may not be significant weather present at this time

METAR text: KHLG 230253Z AUTO 11006KT 10SM SCT022 18/17 A2980 RMK AO2 RAE0154 SLP087 P0000 60010 T01780167 51005
Conditions at: KHLG (WHEELING , WV, US) observed 0253 UTC 23 June 2018
Temperature: 17.8°C (64°F)
Dewpoint: 16.7°C (62°F) [RH = 93%]
Pressure (altimeter): 29.80 inches Hg (1009.2 mb)
[Sea-level pressure: 1008.7 mb]
Winds: from the ESE (110 degrees) at 7 MPH (6 knots; 3.1 m/s)
Visibility: 10 or more miles (16+ km)
Ceiling: at least 12,000 feet AGL
Clouds: scattered clouds at 2200 feet AGL
Weather: automated observation with no human augmentation;
there may or may not be significant weather present at this time

METAR text: KHLG 230249Z AUTO 10005KT 10SM SCT022 18/17 A2980 RMK AO2 RAE0154 P0000
Conditions at: KHLG (WHEELING , WV, US) observed 0249 UTC 23 June 2018
Temperature: 18.0°C (64°F)
Dewpoint: 17.0°C (63°F) [RH = 94%]
Pressure (altimeter): 29.80 inches Hg (1009.2 mb)
Winds: from the E (100 degrees) at 6 MPH (5 knots; 2.6 m/s)
Visibility: 10 or more miles (16+ km)
Ceiling: at least 12,000 feet AGL
Clouds: scattered clouds at 2200 feet AGL
Weather: automated observation with no human augmentation;
there may or may not be significant weather present at this time

METAR text: KHLG 230238Z AUTO 10003KT 10SM BKN022 18/17 A2980 RMK AO2 RAE0154 P0000 T01830167
Conditions at: KHLG (WHEELING , WV, US) observed 0238 UTC 23 June 2018
Temperature: 18.3°C (65°F)
Dewpoint: 16.7°C (62°F) [RH = 90%]
Pressure (altimeter): 29.80 inches Hg (1009.2 mb)
Winds: from the E (100 degrees) at 3 MPH (3 knots; 1.6 m/s)
Visibility: 10 or more miles (16+ km)
Ceiling: 2200 feet AGL
Clouds: broken clouds at 2200 feet AGL
Weather: automated observation with no human augmentation;
there may or may not be significant weather present at this time

METAR text: KHLG 230153Z 08005KT 10SM -RA FEW070 FEW100 SCT120 18/17 A2979 RMK AO2 SLP084 P0007 T01830167
Conditions at: KHLG (WHEELING , WV, US) observed 0153 UTC 23 June 2018
Temperature: 18.3°C (65°F)
Dewpoint: 16.7°C (62°F) [RH = 90%]
Pressure (altimeter): 29.79 inches Hg (1008.9 mb)
[Sea-level pressure: 1008.4 mb]
Winds: from the E (80 degrees) at 6 MPH (5 knots; 2.6 m/s)
Visibility: 10 or more miles (16+ km)
Ceiling: at least 12,000 feet AGL
Clouds: few clouds at 7000 feet AGL
few clouds at 10000 feet AGL
scattered clouds at 12000 feet AGL
Weather: -RA  (light rain)

METAR text: KHLG 230053Z 10006KT 9SM -RA FEW085 BKN110 19/17 A2979 RMK AO2 RAB24 SLP082 P0003 T01890167
Conditions at: KHLG (WHEELING , WV, US) observed 0053 UTC 23 June 2018
Temperature: 18.9°C (66°F)
Dewpoint: 16.7°C (62°F) [RH = 87%]
Pressure (altimeter): 29.79 inches Hg (1008.9 mb)
[Sea-level pressure: 1008.2 mb]
Winds: from the E (100 degrees) at 7 MPH (6 knots; 3.1 m/s)
Visibility: 9 miles (14 km)
Ceiling: 11000 feet AGL
Clouds: few clouds at 8500 feet AGL
broken clouds at 11000 feet AGL
Weather: -RA  (light rain)

METAR text: KHLG 222353Z 10008KT 10SM SCT110 20/17 A2978 RMK AO2 SLP080 60010 T02000167 10233 20200 56004
Conditions at: KHLG (WHEELING , WV, US) observed 2353 UTC 22 June 2018
Temperature: 20.0°C (68°F)
Dewpoint: 16.7°C (62°F) [RH = 81%]
Pressure (altimeter): 29.78 inches Hg (1008.5 mb)
[Sea-level pressure: 1008.0 mb]
Winds: from the E (100 degrees) at 9 MPH (8 knots; 4.2 m/s)
Visibility: 10 or more miles (16+ km)
Ceiling: at least 12,000 feet AGL
Clouds: scattered clouds at 11000 feet AGL
Weather: no significant weather observed at this time

METAR text: KHLG 222253Z 11008KT 10SM BKN110 21/17 A2979 RMK AO2 LTG DSNT W SLP084 T02060167
Conditions at: KHLG (WHEELING , WV, US) observed 2253 UTC 22 June 2018
Temperature: 20.6°C (69°F)
Dewpoint: 16.7°C (62°F) [RH = 78%]
Pressure (altimeter): 29.79 inches Hg (1008.9 mb)
[Sea-level pressure: 1008.4 mb]
Winds: from the ESE (110 degrees) at 9 MPH (8 knots; 4.2 m/s)
Visibility: 10 or more miles (16+ km)
Ceiling: 11000 feet AGL
Clouds: broken clouds at 11000 feet AGL
Weather: no significant weather observed at this time

METAR text: KHLG 222153Z 10010KT 10SM CLR 21/17 A2978 RMK AO2 RAE21 SLP078 P0000 T02110172
Conditions at: KHLG (WHEELING , WV, US) observed 2153 UTC 22 June 2018
Temperature: 21.1°C (70°F)
Dewpoint: 17.2°C (63°F) [RH = 78%]
Pressure (altimeter): 29.78 inches Hg (1008.5 mb)
[Sea-level pressure: 1007.8 mb]
Winds: from the E (100 degrees) at 12 MPH (10 knots; 5.2 m/s)
Visibility: 10 or more miles (16+ km)
Ceiling: at least 12,000 feet AGL
Clouds: sky clear below 12,000 feet AGL
Weather: no significant weather observed at this time

METAR text: KHLG 222053Z 10011KT 10SM -RA OVC110 21/18 A2980 RMK AO2 SLP085 P0004 60010 T02060178 55000
Conditions at: KHLG (WHEELING , WV, US) observed 2053 UTC 22 June 2018
Temperature: 20.6°C (69°F)
Dewpoint: 17.8°C (64°F) [RH = 84%]
Pressure (altimeter): 29.80 inches Hg (1009.2 mb)
[Sea-level pressure: 1008.5 mb]
Winds: from the E (100 degrees) at 13 MPH (11 knots; 5.7 m/s)
Visibility: 10 or more miles (16+ km)
Ceiling: 11000 feet AGL
Clouds: overcast cloud deck at 11000 feet AGL
Weather: -RA  (light rain)

METAR text: KHLG 221953Z 14005KT 9SM -RA FEW100 OVC110 21/18 A2980 RMK AO2 RAB1857 SLP086 P0006 T02060183
Conditions at: KHLG (WHEELING , WV, US) observed 1953 UTC 22 June 2018
Temperature: 20.6°C (69°F)
Dewpoint: 18.3°C (65°F) [RH = 87%]
Pressure (altimeter): 29.80 inches Hg (1009.2 mb)
[Sea-level pressure: 1008.6 mb]
Winds: from the SE (140 degrees) at 6 MPH (5 knots; 2.6 m/s)
Visibility: 9 miles (14 km)
Ceiling: 11000 feet AGL
Clouds: few clouds at 10000 feet AGL
overcast cloud deck at 11000 feet AGL
Weather: -RA  (light rain)

METAR text: KHLG 221853Z 11009KT 10SM SCT029 OVC039 22/18 A2979 RMK AO2 SLP082 T02220183
Conditions at: KHLG (WHEELING , WV, US) observed 1853 UTC 22 June 2018
Temperature: 22.2°C (72°F)
Dewpoint: 18.3°C (65°F) [RH = 79%]
Pressure (altimeter): 29.79 inches Hg (1008.9 mb)
[Sea-level pressure: 1008.2 mb]
Winds: from the ESE (110 degrees) at 10 MPH (9 knots; 4.7 m/s)
Visibility: 10 or more miles (16+ km)
Ceiling: 3900 feet AGL
Clouds: scattered clouds at 2900 feet AGL
overcast cloud deck at 3900 feet AGL
Weather: no significant weather observed at this time

METAR text: KHLG 221801Z 12011KT 10SM BKN023 OVC029 23/19 A2979 RMK AO2 LTG DSNT S T02280194
Conditions at: KHLG (WHEELING , WV, US) observed 1801 UTC 22 June 2018
Temperature: 22.8°C (73°F)
Dewpoint: 19.4°C (67°F) [RH = 81%]
Pressure (altimeter): 29.79 inches Hg (1008.9 mb)
Winds: from the ESE (120 degrees) at 13 MPH (11 knots; 5.7 m/s)
Visibility: 10 or more miles (16+ km)
Ceiling: 2300 feet AGL
Clouds: broken clouds at 2300 feet AGL
overcast cloud deck at 2900 feet AGL
Weather: no significant weather observed at this time

METAR text: KHLG 221753Z 12011KT 10SM SCT021 BKN030 OVC036 23/19 A2979 RMK AO2 SLP084 60029 T02280194 10233 20183 58009
Conditions at: KHLG (WHEELING , WV, US) observed 1753 UTC 22 June 2018
Temperature: 22.8°C (73°F)
Dewpoint: 19.4°C (67°F) [RH = 81%]
Pressure (altimeter): 29.79 inches Hg (1008.9 mb)
[Sea-level pressure: 1008.4 mb]
Winds: from the ESE (120 degrees) at 13 MPH (11 knots; 5.7 m/s)
Visibility: 10 or more miles (16+ km)
Ceiling: 3000 feet AGL
Clouds: scattered clouds at 2100 feet AGL
broken clouds at 3000 feet AGL
overcast cloud deck at 3600 feet AGL
Weather: no significant weather observed at this time

METAR text: KHLG 221653Z 12007KT 10SM FEW039 SCT048 BKN110 22/20 A2981 RMK AO2 RAB07E27 SLP088 P0003 T02220200
Conditions at: KHLG (WHEELING , WV, US) observed 1653 UTC 22 June 2018
Temperature: 22.2°C (72°F)
Dewpoint: 20.0°C (68°F) [RH = 87%]
Pressure (altimeter): 29.81 inches Hg (1009.6 mb)
[Sea-level pressure: 1008.8 mb]
Winds: from the ESE (120 degrees) at 8 MPH (7 knots; 3.6 m/s)
Visibility: 10 or more miles (16+ km)
Ceiling: 11000 feet AGL
Clouds: few clouds at 3900 feet AGL
scattered clouds at 4800 feet AGL
broken clouds at 11000 feet AGL
Weather: no significant weather observed at this time

METAR text: KHLG 221553Z 12009KT 10SM SCT023 BKN041 22/18 A2982 RMK AO2 SLP093 T02170183
Conditions at: KHLG (WHEELING , WV, US) observed 1553 UTC 22 June 2018
Temperature: 21.7°C (71°F)
Dewpoint: 18.3°C (65°F) [RH = 81%]
Pressure (altimeter): 29.82 inches Hg (1009.9 mb)
[Sea-level pressure: 1009.3 mb]
Winds: from the ESE (120 degrees) at 10 MPH (9 knots; 4.7 m/s)
Visibility: 10 or more miles (16+ km)
Ceiling: 4100 feet AGL
Clouds: scattered clouds at 2300 feet AGL
broken clouds at 4100 feet AGL
Weather: no significant weather observed at this time

METAR text: KHLG 221453Z 11009KT 10SM OVC020 21/18 A2982 RMK AO2 RAE1357B05E14B39E50 SLP094 P0000 60026 T02060183 52002
Conditions at: KHLG (WHEELING , WV, US) observed 1453 UTC 22 June 2018
Temperature: 20.6°C (69°F)
Dewpoint: 18.3°C (65°F) [RH = 87%]
Pressure (altimeter): 29.82 inches Hg (1009.9 mb)
[Sea-level pressure: 1009.4 mb]
Winds: from the ESE (110 degrees) at 10 MPH (9 knots; 4.7 m/s)
Visibility: 10 or more miles (16+ km)
Ceiling: 2000 feet AGL
Clouds: overcast cloud deck at 2000 feet AGL
Weather: no significant weather observed at this time

METAR text: KHLG 221400Z 12014KT 10SM FEW008 OVC020 19/18 A2982 RMK AO2 RAE1357 P0000 T01890178
Conditions at: KHLG (WHEELING , WV, US) observed 1400 UTC 22 June 2018
Temperature: 18.9°C (66°F)
Dewpoint: 17.8°C (64°F) [RH = 93%]
Pressure (altimeter): 29.82 inches Hg (1009.9 mb)
Winds: from the ESE (120 degrees) at 16 MPH (14 knots; 7.3 m/s)
Visibility: 10 or more miles (16+ km)
Ceiling: 2000 feet AGL
Clouds: few clouds at 800 feet AGL
overcast cloud deck at 2000 feet AGL
Weather: no significant weather observed at this time

METAR text: KHLG 221353Z 11015KT 2 1/2SM R03/4500VP6000FT -RA BR FEW006 BKN018 OVC028 18/17 A2982 RMK AO2 SLP094 P0026 T01830172
Conditions at: KHLG (WHEELING , WV, US) observed 1353 UTC 22 June 2018
Temperature: 18.3°C (65°F)
Dewpoint: 17.2°C (63°F) [RH = 93%]
Pressure (altimeter): 29.82 inches Hg (1009.9 mb)
[Sea-level pressure: 1009.4 mb]
Winds: from the ESE (110 degrees) at 17 MPH (15 knots; 7.8 m/s)
Visibility: 2.50 miles (4.02 km)
Ceiling: 1800 feet AGL
Clouds: few clouds at 600 feet AGL
broken clouds at 1800 feet AGL
overcast cloud deck at 2800 feet AGL
Weather: -RA BR  (light rain, mist)

METAR text: KHLG 221351Z 11014KT 2SM R03/4500VP6000FT -RA BR FEW006 BKN020 OVC028 18/17 A2982 RMK AO2 P0026
Conditions at: KHLG (WHEELING , WV, US) observed 1351 UTC 22 June 2018
Temperature: 18.0°C (64°F)
Dewpoint: 17.0°C (63°F) [RH = 94%]
Pressure (altimeter): 29.82 inches Hg (1009.9 mb)
Winds: from the ESE (110 degrees) at 16 MPH (14 knots; 7.3 m/s)
Visibility: 2.00 miles (3.22 km)
Ceiling: 2000 feet AGL
Clouds: few clouds at 600 feet AGL
broken clouds at 2000 feet AGL
overcast cloud deck at 2800 feet AGL
Weather: -RA BR  (light rain, mist)

METAR text: KHLG 221345Z 11014G22KT 3/4SM R03/2400VP6000FT +RA BR SCT009 OVC020 18/17 A2982 RMK AO2 P0024 T01830172
Conditions at: KHLG (WHEELING , WV, US) observed 1345 UTC 22 June 2018
Temperature: 18.3°C (65°F)
Dewpoint: 17.2°C (63°F) [RH = 93%]
Pressure (altimeter): 29.82 inches Hg (1009.9 mb)
Winds: from the ESE (110 degrees) at 16 MPH (14 knots; 7.3 m/s)
gusting to 25 MPH (22 knots; 11.4 m/s)
Visibility: 0.75 miles (1.21 km)
Ceiling: 2000 feet AGL
Clouds: scattered clouds at 900 feet AGL
overcast cloud deck at 2000 feet AGL
Weather: +RA BR  (heavy rain, mist)

METAR text: KHLG 221336Z 11017G22KT 1 1/2SM R03/2600VP6000FT +RA BR FEW006 BKN017 OVC022 19/17 A2982 RMK AO2 P0012 T01890172
Conditions at: KHLG (WHEELING , WV, US) observed 1336 UTC 22 June 2018
Temperature: 18.9°C (66°F)
Dewpoint: 17.2°C (63°F) [RH = 90%]
Pressure (altimeter): 29.82 inches Hg (1009.9 mb)
Winds: from the ESE (110 degrees) at 20 MPH (17 knots; 8.8 m/s)
gusting to 25 MPH (22 knots; 11.4 m/s)
Visibility: 1.50 miles (2.41 km)
Ceiling: 1700 feet AGL
Clouds: few clouds at 600 feet AGL
broken clouds at 1700 feet AGL
overcast cloud deck at 2200 feet AGL
Weather: +RA BR  (heavy rain, mist)

METAR text: KHLG 221253Z 10011KT 10SM -RA FEW008 OVC018 19/18 A2982 RMK AO2 RAB12E30B52 SLP092 P0000 T01890178
Conditions at: KHLG (WHEELING , WV, US) observed 1253 UTC 22 June 2018
Temperature: 18.9°C (66°F)
Dewpoint: 17.8°C (64°F) [RH = 93%]
Pressure (altimeter): 29.82 inches Hg (1009.9 mb)
[Sea-level pressure: 1009.2 mb]
Winds: from the E (100 degrees) at 13 MPH (11 knots; 5.7 m/s)
Visibility: 10 or more miles (16+ km)
Ceiling: 1800 feet AGL
Clouds: few clouds at 800 feet AGL
overcast cloud deck at 1800 feet AGL
Weather: -RA  (light rain)

METAR text: KHLG 221248Z 10012KT 10SM SCT008 OVC018 19/18 A2982 RMK AO2 RAB12E30 P0000
Conditions at: KHLG (WHEELING , WV, US) observed 1248 UTC 22 June 2018
Temperature: 19.0°C (66°F)
Dewpoint: 18.0°C (64°F) [RH = 94%]
Pressure (altimeter): 29.82 inches Hg (1009.9 mb)
Winds: from the E (100 degrees) at 14 MPH (12 knots; 6.2 m/s)
Visibility: 10 or more miles (16+ km)
Ceiling: 1800 feet AGL
Clouds: scattered clouds at 800 feet AGL
overcast cloud deck at 1800 feet AGL
Weather: no significant weather observed at this time